sensor_id;sensor_type;location;lat;lon;timestamp;temperature;humidity
26655;DHT22;14278;50.784;4.630;2023-08-08T00:01:22;15.20;99.90
26655;DHT22;14278;50.784;4.630;2023-08-08T00:03:48;15.10;99.90
26655;DHT22;14278;50.784;4.630;2023-08-08T00:06:13;15.00;99.90
26655;DHT22;14278;50.784;4.630;2023-08-08T00:08:39;14.90;99.90
26655;DHT22;14278;50.784;4.630;2023-08-08T00:11:06;14.80;99.90
26655;DHT22;14278;50.784;4.630;2023-08-08T00:13:32;14.80;99.90
26655;DHT22;14278;50.784;4.630;2023-08-08T00:15:57;14.70;99.90
26655;DHT22;14278;50.784;4.630;2023-08-08T00:18:23;14.60;99.90
26655;DHT22;14278;50.784;4.630;2023-08-08T00:20:49;14.80;99.90
26655;DHT22;14278;50.784;4.630;2023-08-08T00:23:15;14.80;99.90
26655;DHT22;14278;50.784;4.630;2023-08-08T00:25:41;14.80;99.90
26655;DHT22;14278;50.784;4.630;2023-08-08T00:28:07;14.70;99.90
26655;DHT22;14278;50.784;4.630;2023-08-08T00:30:32;14.80;99.90
26655;DHT22;14278;50.784;4.630;2023-08-08T00:32:58;14.70;99.90
26655;DHT22;14278;50.784;4.630;2023-08-08T00:35:25;14.70;99.90
26655;DHT22;14278;50.784;4.630;2023-08-08T00:37:51;14.70;99.90
26655;DHT22;14278;50.784;4.630;2023-08-08T00:40:16;14.60;99.90
26655;DHT22;14278;50.784;4.630;2023-08-08T00:42:42;14.70;99.90
26655;DHT22;14278;50.784;4.630;2023-08-08T00:45:08;14.90;99.90
26655;DHT22;14278;50.784;4.630;2023-08-08T00:47:34;14.90;99.90
26655;DHT22;14278;50.784;4.630;2023-08-08T00:50:01;14.90;99.90
26655;DHT22;14278;50.784;4.630;2023-08-08T00:52:28;14.80;99.90
26655;DHT22;14278;50.784;4.630;2023-08-08T00:54:54;14.90;99.90
26655;DHT22;14278;50.784;4.630;2023-08-08T00:57:21;14.80;99.90
26655;DHT22;14278;50.784;4.630;2023-08-08T00:59:47;14.70;99.90
26655;DHT22;14278;50.784;4.630;2023-08-08T01:02:12;14.70;99.90
26655;DHT22;14278;50.784;4.630;2023-08-08T01:04:39;14.70;99.90
26655;DHT22;14278;50.784;4.630;2023-08-08T01:07:33;14.80;99.90
26655;DHT22;14278;50.784;4.630;2023-08-08T01:10:02;14.80;99.90
26655;DHT22;14278;50.784;4.630;2023-08-08T01:12:45;14.70;99.90
26655;DHT22;14278;50.784;4.630;2023-08-08T01:15:11;14.80;99.90
26655;DHT22;14278;50.784;4.630;2023-08-08T01:17:38;14.90;99.90
26655;DHT22;14278;50.784;4.630;2023-08-08T01:20:06;14.70;99.90
26655;DHT22;14278;50.784;4.630;2023-08-08T01:25:34;14.50;99.90
26655;DHT22;14278;50.784;4.630;2023-08-08T01:28:00;14.50;99.90
26655;DHT22;14278;50.784;4.630;2023-08-08T01:30:25;14.60;99.90
26655;DHT22;14278;50.784;4.630;2023-08-08T01:32:51;14.70;99.90
26655;DHT22;14278;50.784;4.630;2023-08-08T01:35:17;14.60;99.90
26655;DHT22;14278;50.784;4.630;2023-08-08T01:37:52;14.70;99.90
26655;DHT22;14278;50.784;4.630;2023-08-08T01:40:18;14.70;99.90
26655;DHT22;14278;50.784;4.630;2023-08-08T01:42:46;14.70;99.90
26655;DHT22;14278;50.784;4.630;2023-08-08T01:45:15;14.60;99.90
26655;DHT22;14278;50.784;4.630;2023-08-08T01:47:41;14.60;99.90
26655;DHT22;14278;50.784;4.630;2023-08-08T01:50:08;14.60;99.90
26655;DHT22;14278;50.784;4.630;2023-08-08T01:52:34;14.70;99.90
26655;DHT22;14278;50.784;4.630;2023-08-08T01:55:00;14.60;99.90
26655;DHT22;14278;50.784;4.630;2023-08-08T01:57:27;14.40;99.90
26655;DHT22;14278;50.784;4.630;2023-08-08T01:59:52;14.60;99.90
26655;DHT22;14278;50.784;4.630;2023-08-08T02:02:18;14.60;99.90
26655;DHT22;14278;50.784;4.630;2023-08-08T02:04:44;14.70;99.90
26655;DHT22;14278;50.784;4.630;2023-08-08T02:07:09;14.70;99.90
26655;DHT22;14278;50.784;4.630;2023-08-08T02:09:36;14.60;99.90
26655;DHT22;14278;50.784;4.630;2023-08-08T02:12:01;14.80;99.90
26655;DHT22;14278;50.784;4.630;2023-08-08T02:14:27;14.70;99.90
26655;DHT22;14278;50.784;4.630;2023-08-08T02:16:53;14.70;99.90
26655;DHT22;14278;50.784;4.630;2023-08-08T02:19:18;14.70;99.90
26655;DHT22;14278;50.784;4.630;2023-08-08T02:21:44;14.50;99.90
26655;DHT22;14278;50.784;4.630;2023-08-08T02:24:10;14.70;99.90
26655;DHT22;14278;50.784;4.630;2023-08-08T02:26:37;14.60;99.90
26655;DHT22;14278;50.784;4.630;2023-08-08T02:29:02;14.60;99.90
26655;DHT22;14278;50.784;4.630;2023-08-08T02:31:28;14.60;99.90
26655;DHT22;14278;50.784;4.630;2023-08-08T02:33:54;14.70;99.90
26655;DHT22;14278;50.784;4.630;2023-08-08T02:36:20;14.70;99.90
26655;DHT22;14278;50.784;4.630;2023-08-08T02:38:46;14.60;99.90
26655;DHT22;14278;50.784;4.630;2023-08-08T02:41:11;14.50;99.90
26655;DHT22;14278;50.784;4.630;2023-08-08T02:43:37;14.60;99.90
26655;DHT22;14278;50.784;4.630;2023-08-08T02:46:03;14.40;99.90
26655;DHT22;14278;50.784;4.630;2023-08-08T02:48:30;14.60;99.90
26655;DHT22;14278;50.784;4.630;2023-08-08T02:50:56;14.60;99.90
26655;DHT22;14278;50.784;4.630;2023-08-08T02:53:23;14.70;99.90
26655;DHT22;14278;50.784;4.630;2023-08-08T02:55:48;14.60;99.90
26655;DHT22;14278;50.784;4.630;2023-08-08T02:58:15;14.40;99.90
26655;DHT22;14278;50.784;4.630;2023-08-08T03:00:40;14.30;99.90
26655;DHT22;14278;50.784;4.630;2023-08-08T03:03:06;14.40;99.90
26655;DHT22;14278;50.784;4.630;2023-08-08T03:05:32;14.60;99.90
26655;DHT22;14278;50.784;4.630;2023-08-08T03:07:58;14.70;99.90
26655;DHT22;14278;50.784;4.630;2023-08-08T03:10:25;14.60;99.90
26655;DHT22;14278;50.784;4.630;2023-08-08T03:12:51;14.50;99.90
26655;DHT22;14278;50.784;4.630;2023-08-08T03:15:16;14.70;99.90
26655;DHT22;14278;50.784;4.630;2023-08-08T03:17:42;14.60;99.90
26655;DHT22;14278;50.784;4.630;2023-08-08T03:20:08;14.60;99.90
26655;DHT22;14278;50.784;4.630;2023-08-08T03:22:34;14.60;99.90
26655;DHT22;14278;50.784;4.630;2023-08-08T03:25:00;14.60;99.90
26655;DHT22;14278;50.784;4.630;2023-08-08T03:27:26;14.40;99.90
26655;DHT22;14278;50.784;4.630;2023-08-08T03:29:51;14.50;99.90
26655;DHT22;14278;50.784;4.630;2023-08-08T03:32:18;14.50;99.90
26655;DHT22;14278;50.784;4.630;2023-08-08T03:34:44;14.30;99.90
26655;DHT22;14278;50.784;4.630;2023-08-08T03:37:10;14.40;99.90
26655;DHT22;14278;50.784;4.630;2023-08-08T03:39:35;14.40;99.90
26655;DHT22;14278;50.784;4.630;2023-08-08T03:42:01;14.30;99.90
26655;DHT22;14278;50.784;4.630;2023-08-08T03:44:27;14.30;99.90
26655;DHT22;14278;50.784;4.630;2023-08-08T03:46:53;14.30;99.90
26655;DHT22;14278;50.784;4.630;2023-08-08T03:49:19;14.10;99.90
26655;DHT22;14278;50.784;4.630;2023-08-08T03:51:44;14.20;99.90
26655;DHT22;14278;50.784;4.630;2023-08-08T03:54:10;14.20;99.90
26655;DHT22;14278;50.784;4.630;2023-08-08T03:56:35;14.20;99.90
26655;DHT22;14278;50.784;4.630;2023-08-08T03:59:02;14.10;99.90
26655;DHT22;14278;50.784;4.630;2023-08-08T04:01:27;14.00;99.90
26655;DHT22;14278;50.784;4.630;2023-08-08T04:03:53;14.30;99.90
26655;DHT22;14278;50.784;4.630;2023-08-08T04:06:19;14.10;99.90
26655;DHT22;14278;50.784;4.630;2023-08-08T04:08:44;14.20;99.90
26655;DHT22;14278;50.784;4.630;2023-08-08T04:11:10;14.50;99.90
26655;DHT22;14278;50.784;4.630;2023-08-08T04:13:36;14.20;99.90
26655;DHT22;14278;50.784;4.630;2023-08-08T04:16:02;14.10;99.90
26655;DHT22;14278;50.784;4.630;2023-08-08T04:18:28;14.20;99.90
26655;DHT22;14278;50.784;4.630;2023-08-08T04:20:53;14.20;99.90
26655;DHT22;14278;50.784;4.630;2023-08-08T04:23:20;14.30;99.90
26655;DHT22;14278;50.784;4.630;2023-08-08T04:25:45;14.30;99.90
26655;DHT22;14278;50.784;4.630;2023-08-08T04:28:11;14.40;99.90
26655;DHT22;14278;50.784;4.630;2023-08-08T04:30:36;14.40;99.90
26655;DHT22;14278;50.784;4.630;2023-08-08T04:33:02;14.50;99.90
26655;DHT22;14278;50.784;4.630;2023-08-08T04:35:28;14.20;99.90
26655;DHT22;14278;50.784;4.630;2023-08-08T04:37:53;14.20;99.90
26655;DHT22;14278;50.784;4.630;2023-08-08T04:40:19;14.20;99.90
26655;DHT22;14278;50.784;4.630;2023-08-08T04:42:45;14.20;99.90
26655;DHT22;14278;50.784;4.630;2023-08-08T04:45:10;14.50;99.90
26655;DHT22;14278;50.784;4.630;2023-08-08T04:47:37;14.50;99.90
26655;DHT22;14278;50.784;4.630;2023-08-08T04:50:02;14.50;99.90
26655;DHT22;14278;50.784;4.630;2023-08-08T04:52:28;14.50;99.90
26655;DHT22;14278;50.784;4.630;2023-08-08T04:54:54;14.50;99.90
26655;DHT22;14278;50.784;4.630;2023-08-08T04:57:19;14.60;99.90
26655;DHT22;14278;50.784;4.630;2023-08-08T04:59:46;14.60;99.90
26655;DHT22;14278;50.784;4.630;2023-08-08T05:02:11;14.80;99.90
26655;DHT22;14278;50.784;4.630;2023-08-08T05:04:37;14.60;99.90
26655;DHT22;14278;50.784;4.630;2023-08-08T05:07:03;14.70;99.90
26655;DHT22;14278;50.784;4.630;2023-08-08T05:09:28;14.60;99.90
26655;DHT22;14278;50.784;4.630;2023-08-08T05:11:54;14.60;99.90
26655;DHT22;14278;50.784;4.630;2023-08-08T05:14:20;14.70;99.90
26655;DHT22;14278;50.784;4.630;2023-08-08T05:16:46;14.80;99.90
26655;DHT22;14278;50.784;4.630;2023-08-08T05:19:12;15.00;99.90
26655;DHT22;14278;50.784;4.630;2023-08-08T05:21:37;15.00;99.90
26655;DHT22;14278;50.784;4.630;2023-08-08T05:24:04;15.10;99.90
26655;DHT22;14278;50.784;4.630;2023-08-08T05:26:29;15.10;99.90
26655;DHT22;14278;50.784;4.630;2023-08-08T05:28:55;15.00;99.90
26655;DHT22;14278;50.784;4.630;2023-08-08T05:31:21;15.00;99.90
26655;DHT22;14278;50.784;4.630;2023-08-08T05:33:48;15.20;99.90
26655;DHT22;14278;50.784;4.630;2023-08-08T05:36:14;15.20;99.90
26655;DHT22;14278;50.784;4.630;2023-08-08T05:38:40;15.40;99.90
26655;DHT22;14278;50.784;4.630;2023-08-08T05:41:07;15.60;99.90
26655;DHT22;14278;50.784;4.630;2023-08-08T05:43:33;15.70;99.90
26655;DHT22;14278;50.784;4.630;2023-08-08T05:45:59;15.80;99.90
26655;DHT22;14278;50.784;4.630;2023-08-08T05:48:25;15.80;99.90
26655;DHT22;14278;50.784;4.630;2023-08-08T05:50:51;16.00;99.90
26655;DHT22;14278;50.784;4.630;2023-08-08T05:53:17;16.00;99.90
26655;DHT22;14278;50.784;4.630;2023-08-08T05:55:42;15.90;99.90
26655;DHT22;14278;50.784;4.630;2023-08-08T05:58:09;15.90;99.90
26655;DHT22;14278;50.784;4.630;2023-08-08T06:00:35;16.00;99.90
26655;DHT22;14278;50.784;4.630;2023-08-08T06:03:01;16.40;99.90
26655;DHT22;14278;50.784;4.630;2023-08-08T06:05:27;16.70;99.90
26655;DHT22;14278;50.784;4.630;2023-08-08T06:07:54;17.10;99.90
26655;DHT22;14278;50.784;4.630;2023-08-08T06:10:21;17.40;99.90
26655;DHT22;14278;50.784;4.630;2023-08-08T06:12:47;17.70;99.90
26655;DHT22;14278;50.784;4.630;2023-08-08T06:15:13;17.60;99.90
26655;DHT22;14278;50.784;4.630;2023-08-08T06:17:39;17.60;99.90
26655;DHT22;14278;50.784;4.630;2023-08-08T06:20:05;17.40;99.90
26655;DHT22;14278;50.784;4.630;2023-08-08T06:22:32;17.70;99.90
26655;DHT22;14278;50.784;4.630;2023-08-08T06:24:58;17.90;99.90
26655;DHT22;14278;50.784;4.630;2023-08-08T06:27:24;18.00;99.90
26655;DHT22;14278;50.784;4.630;2023-08-08T06:29:49;17.90;99.90
26655;DHT22;14278;50.784;4.630;2023-08-08T06:32:15;17.90;99.90
26655;DHT22;14278;50.784;4.630;2023-08-08T06:34:41;18.10;99.90
26655;DHT22;14278;50.784;4.630;2023-08-08T06:37:07;18.20;99.90
26655;DHT22;14278;50.784;4.630;2023-08-08T06:39:33;18.30;99.90
26655;DHT22;14278;50.784;4.630;2023-08-08T06:41:59;18.40;99.90
26655;DHT22;14278;50.784;4.630;2023-08-08T06:44:24;19.00;99.90
26655;DHT22;14278;50.784;4.630;2023-08-08T06:46:50;19.70;99.90
26655;DHT22;14278;50.784;4.630;2023-08-08T06:49:16;20.70;99.90
26655;DHT22;14278;50.784;4.630;2023-08-08T06:51:42;21.50;99.90
26655;DHT22;14278;50.784;4.630;2023-08-08T06:54:08;23.00;99.90
26655;DHT22;14278;50.784;4.630;2023-08-08T06:56:33;24.50;99.90
26655;DHT22;14278;50.784;4.630;2023-08-08T06:58:59;24.00;99.90
26655;DHT22;14278;50.784;4.630;2023-08-08T07:01:25;25.40;99.90
26655;DHT22;14278;50.784;4.630;2023-08-08T07:03:51;25.60;99.90
26655;DHT22;14278;50.784;4.630;2023-08-08T07:06:18;25.80;99.90
26655;DHT22;14278;50.784;4.630;2023-08-08T07:08:43;25.40;99.90
26655;DHT22;14278;50.784;4.630;2023-08-08T07:11:09;24.40;99.90
26655;DHT22;14278;50.784;4.630;2023-08-08T07:13:36;23.30;99.90
26655;DHT22;14278;50.784;4.630;2023-08-08T07:16:02;22.20;99.90
26655;DHT22;14278;50.784;4.630;2023-08-08T07:18:28;22.00;99.90
26655;DHT22;14278;50.784;4.630;2023-08-08T07:20:53;22.20;99.90
26655;DHT22;14278;50.784;4.630;2023-08-08T07:23:19;21.90;99.90
26655;DHT22;14278;50.784;4.630;2023-08-08T07:25:48;21.70;99.90
26655;DHT22;14278;50.784;4.630;2023-08-08T07:28:14;21.60;99.90
26655;DHT22;14278;50.784;4.630;2023-08-08T07:30:40;21.10;99.90
26655;DHT22;14278;50.784;4.630;2023-08-08T07:33:06;20.90;99.90
26655;DHT22;14278;50.784;4.630;2023-08-08T07:35:34;20.70;99.90
26655;DHT22;14278;50.784;4.630;2023-08-08T07:38:00;20.30;99.90
26655;DHT22;14278;50.784;4.630;2023-08-08T07:40:26;19.80;99.90
26655;DHT22;14278;50.784;4.630;2023-08-08T07:42:51;19.60;99.90
26655;DHT22;14278;50.784;4.630;2023-08-08T07:45:18;19.50;99.90
26655;DHT22;14278;50.784;4.630;2023-08-08T07:47:44;19.60;99.90
26655;DHT22;14278;50.784;4.630;2023-08-08T07:50:11;19.50;99.90
26655;DHT22;14278;50.784;4.630;2023-08-08T07:52:37;19.70;99.90
26655;DHT22;14278;50.784;4.630;2023-08-08T07:55:04;19.70;99.90
26655;DHT22;14278;50.784;4.630;2023-08-08T07:57:30;20.10;99.90
26655;DHT22;14278;50.784;4.630;2023-08-08T07:59:57;20.10;99.90
26655;DHT22;14278;50.784;4.630;2023-08-08T08:02:23;20.50;99.90
26655;DHT22;14278;50.784;4.630;2023-08-08T08:04:48;20.70;99.90
26655;DHT22;14278;50.784;4.630;2023-08-08T08:07:14;20.70;99.90
26655;DHT22;14278;50.784;4.630;2023-08-08T08:09:40;20.70;99.90
26655;DHT22;14278;50.784;4.630;2023-08-08T08:12:08;20.90;99.90
26655;DHT22;14278;50.784;4.630;2023-08-08T08:14:34;20.70;99.90
26655;DHT22;14278;50.784;4.630;2023-08-08T08:17:00;20.90;99.90
26655;DHT22;14278;50.784;4.630;2023-08-08T08:19:26;20.70;99.90
26655;DHT22;14278;50.784;4.630;2023-08-08T08:21:51;20.70;99.90
26655;DHT22;14278;50.784;4.630;2023-08-08T08:24:17;20.90;99.90
26655;DHT22;14278;50.784;4.630;2023-08-08T08:26:43;20.80;99.90
26655;DHT22;14278;50.784;4.630;2023-08-08T08:29:09;21.30;99.90
26655;DHT22;14278;50.784;4.630;2023-08-08T08:31:34;21.30;99.90
26655;DHT22;14278;50.784;4.630;2023-08-08T08:34:02;21.70;99.90
26655;DHT22;14278;50.784;4.630;2023-08-08T08:36:28;21.00;99.90
26655;DHT22;14278;50.784;4.630;2023-08-08T08:38:54;20.60;99.90
26655;DHT22;14278;50.784;4.630;2023-08-08T08:41:20;21.10;99.90
26655;DHT22;14278;50.784;4.630;2023-08-08T08:43:50;21.10;99.90
26655;DHT22;14278;50.784;4.630;2023-08-08T08:46:19;21.50;99.90
26655;DHT22;14278;50.784;4.630;2023-08-08T08:48:46;21.60;99.90
26655;DHT22;14278;50.784;4.630;2023-08-08T08:51:13;21.90;99.90
26655;DHT22;14278;50.784;4.630;2023-08-08T08:53:40;22.10;99.90
26655;DHT22;14278;50.784;4.630;2023-08-08T08:56:08;21.50;99.90
26655;DHT22;14278;50.784;4.630;2023-08-08T08:58:34;21.10;99.90
26655;DHT22;14278;50.784;4.630;2023-08-08T09:01:00;21.00;99.90
26655;DHT22;14278;50.784;4.630;2023-08-08T09:03:26;20.70;99.90
26655;DHT22;14278;50.784;4.630;2023-08-08T09:05:52;20.80;99.90
26655;DHT22;14278;50.784;4.630;2023-08-08T09:08:20;21.40;99.90
26655;DHT22;14278;50.784;4.630;2023-08-08T09:10:46;21.60;99.90
26655;DHT22;14278;50.784;4.630;2023-08-08T09:13:11;21.50;99.90
26655;DHT22;14278;50.784;4.630;2023-08-08T09:15:37;21.60;99.90
26655;DHT22;14278;50.784;4.630;2023-08-08T09:18:03;21.80;99.90
26655;DHT22;14278;50.784;4.630;2023-08-08T09:20:29;21.80;99.90
26655;DHT22;14278;50.784;4.630;2023-08-08T09:22:55;22.00;99.90
26655;DHT22;14278;50.784;4.630;2023-08-08T09:25:23;21.60;99.90
26655;DHT22;14278;50.784;4.630;2023-08-08T09:27:51;21.60;99.90
26655;DHT22;14278;50.784;4.630;2023-08-08T09:30:18;21.50;99.90
26655;DHT22;14278;50.784;4.630;2023-08-08T09:32:45;21.70;99.90
26655;DHT22;14278;50.784;4.630;2023-08-08T09:35:11;21.40;99.90
26655;DHT22;14278;50.784;4.630;2023-08-08T09:37:37;21.40;99.90
26655;DHT22;14278;50.784;4.630;2023-08-08T09:40:05;21.70;99.90
26655;DHT22;14278;50.784;4.630;2023-08-08T09:42:34;22.10;99.90
26655;DHT22;14278;50.784;4.630;2023-08-08T09:45:00;22.20;99.90
26655;DHT22;14278;50.784;4.630;2023-08-08T09:47:26;22.40;99.90
26655;DHT22;14278;50.784;4.630;2023-08-08T09:50:02;22.40;99.90
26655;DHT22;14278;50.784;4.630;2023-08-08T09:52:31;22.30;99.90
26655;DHT22;14278;50.784;4.630;2023-08-08T09:54:58;22.40;99.90
26655;DHT22;14278;50.784;4.630;2023-08-08T09:57:25;22.30;99.90
26655;DHT22;14278;50.784;4.630;2023-08-08T09:59:52;22.20;99.90
26655;DHT22;14278;50.784;4.630;2023-08-08T10:02:18;21.50;99.90
26655;DHT22;14278;50.784;4.630;2023-08-08T10:04:47;21.60;99.90
26655;DHT22;14278;50.784;4.630;2023-08-08T10:07:14;21.70;99.90
26655;DHT22;14278;50.784;4.630;2023-08-08T10:09:40;21.70;99.90
26655;DHT22;14278;50.784;4.630;2023-08-08T10:12:07;22.00;99.90
26655;DHT22;14278;50.784;4.630;2023-08-08T10:14:36;22.20;99.90
26655;DHT22;14278;50.784;4.630;2023-08-08T10:17:04;22.10;99.90
26655;DHT22;14278;50.784;4.630;2023-08-08T10:19:30;22.10;99.90
26655;DHT22;14278;50.784;4.630;2023-08-08T10:21:58;22.30;99.90
26655;DHT22;14278;50.784;4.630;2023-08-08T10:24:24;22.90;99.90
26655;DHT22;14278;50.784;4.630;2023-08-08T10:26:58;22.40;99.90
26655;DHT22;14278;50.784;4.630;2023-08-08T10:29:27;21.90;99.90
26655;DHT22;14278;50.784;4.630;2023-08-08T10:32:04;22.10;99.90
26655;DHT22;14278;50.784;4.630;2023-08-08T10:34:44;21.00;99.90
26655;DHT22;14278;50.784;4.630;2023-08-08T10:37:12;20.90;99.90
26655;DHT22;14278;50.784;4.630;2023-08-08T10:39:58;21.00;99.90
26655;DHT22;14278;50.784;4.630;2023-08-08T10:42:26;21.30;99.90
26655;DHT22;14278;50.784;4.630;2023-08-08T10:44:56;21.20;99.90
26655;DHT22;14278;50.784;4.630;2023-08-08T10:47:40;21.30;99.90
26655;DHT22;14278;50.784;4.630;2023-08-08T10:50:12;20.60;99.90
26655;DHT22;14278;50.784;4.630;2023-08-08T10:55:19;20.10;99.90
26655;DHT22;14278;50.784;4.630;2023-08-08T10:58:04;19.90;99.90
26655;DHT22;14278;50.784;4.630;2023-08-08T11:00:31;20.20;99.90
26655;DHT22;14278;50.784;4.630;2023-08-08T11:02:58;20.50;99.90
26655;DHT22;14278;50.784;4.630;2023-08-08T11:05:24;20.40;99.90
26655;DHT22;14278;50.784;4.630;2023-08-08T11:07:52;20.50;99.90
26655;DHT22;14278;50.784;4.630;2023-08-08T11:10:18;20.20;99.90
26655;DHT22;14278;50.784;4.630;2023-08-08T11:13:04;20.00;99.90
26655;DHT22;14278;50.784;4.630;2023-08-08T11:15:33;20.40;99.90
26655;DHT22;14278;50.784;4.630;2023-08-08T11:18:00;20.40;99.90
26655;DHT22;14278;50.784;4.630;2023-08-08T11:20:30;20.60;99.90
26655;DHT22;14278;50.784;4.630;2023-08-08T11:22:57;20.60;99.90
26655;DHT22;14278;50.784;4.630;2023-08-08T11:25:26;21.20;99.90
26655;DHT22;14278;50.784;4.630;2023-08-08T11:27:52;22.00;99.90
26655;DHT22;14278;50.784;4.630;2023-08-08T11:30:19;22.30;99.90
26655;DHT22;14278;50.784;4.630;2023-08-08T11:32:46;22.20;99.90
26655;DHT22;14278;50.784;4.630;2023-08-08T11:35:16;22.30;99.90
26655;DHT22;14278;50.784;4.630;2023-08-08T11:37:43;22.00;99.90
26655;DHT22;14278;50.784;4.630;2023-08-08T11:40:09;21.50;99.90
26655;DHT22;14278;50.784;4.630;2023-08-08T11:42:36;21.50;99.90
26655;DHT22;14278;50.784;4.630;2023-08-08T11:45:02;21.20;99.90
26655;DHT22;14278;50.784;4.630;2023-08-08T11:47:30;21.30;99.90
26655;DHT22;14278;50.784;4.630;2023-08-08T11:50:01;21.90;99.90
26655;DHT22;14278;50.784;4.630;2023-08-08T11:52:28;22.20;99.90
26655;DHT22;14278;50.784;4.630;2023-08-08T11:54:55;22.20;99.90
26655;DHT22;14278;50.784;4.630;2023-08-08T11:57:22;21.90;99.90
26655;DHT22;14278;50.784;4.630;2023-08-08T11:59:53;21.80;99.90
26655;DHT22;14278;50.784;4.630;2023-08-08T12:02:18;21.50;99.90
26655;DHT22;14278;50.784;4.630;2023-08-08T12:04:47;21.30;99.90
26655;DHT22;14278;50.784;4.630;2023-08-08T12:07:13;21.00;99.90
26655;DHT22;14278;50.784;4.630;2023-08-08T12:09:39;20.70;99.90
26655;DHT22;14278;50.784;4.630;2023-08-08T12:12:06;20.40;99.90
26655;DHT22;14278;50.784;4.630;2023-08-08T12:14:38;19.90;99.90
26655;DHT22;14278;50.784;4.630;2023-08-08T12:17:04;20.10;99.90
26655;DHT22;14278;50.784;4.630;2023-08-08T12:19:30;20.20;99.90
26655;DHT22;14278;50.784;4.630;2023-08-08T12:21:56;20.50;99.90
26655;DHT22;14278;50.784;4.630;2023-08-08T12:24:22;21.00;99.90
26655;DHT22;14278;50.784;4.630;2023-08-08T12:26:48;21.80;99.90
26655;DHT22;14278;50.784;4.630;2023-08-08T12:29:13;22.60;99.90
26655;DHT22;14278;50.784;4.630;2023-08-08T12:31:39;23.10;99.90
26655;DHT22;14278;50.784;4.630;2023-08-08T12:34:06;23.10;99.90
26655;DHT22;14278;50.784;4.630;2023-08-08T12:36:32;23.40;99.90
26655;DHT22;14278;50.784;4.630;2023-08-08T12:38:57;23.30;99.90
26655;DHT22;14278;50.784;4.630;2023-08-08T12:41:23;23.40;99.90
26655;DHT22;14278;50.784;4.630;2023-08-08T12:43:52;23.40;99.90
26655;DHT22;14278;50.784;4.630;2023-08-08T12:46:18;23.40;99.90
26655;DHT22;14278;50.784;4.630;2023-08-08T12:48:44;23.90;99.90
26655;DHT22;14278;50.784;4.630;2023-08-08T12:51:10;23.80;99.90
26655;DHT22;14278;50.784;4.630;2023-08-08T12:53:36;23.50;99.90
26655;DHT22;14278;50.784;4.630;2023-08-08T12:56:02;23.10;99.90
26655;DHT22;14278;50.784;4.630;2023-08-08T12:58:28;22.60;99.90
26655;DHT22;14278;50.784;4.630;2023-08-08T13:00:54;22.60;99.90
26655;DHT22;14278;50.784;4.630;2023-08-08T13:03:20;22.60;99.90
26655;DHT22;14278;50.784;4.630;2023-08-08T13:05:46;22.90;99.90
26655;DHT22;14278;50.784;4.630;2023-08-08T13:08:12;23.10;99.90
26655;DHT22;14278;50.784;4.630;2023-08-08T13:10:39;22.80;99.90
26655;DHT22;14278;50.784;4.630;2023-08-08T13:13:05;23.20;99.90
26655;DHT22;14278;50.784;4.630;2023-08-08T13:15:31;22.80;99.90
26655;DHT22;14278;50.784;4.630;2023-08-08T13:17:57;22.80;99.90
26655;DHT22;14278;50.784;4.630;2023-08-08T13:20:25;22.70;99.90
26655;DHT22;14278;50.784;4.630;2023-08-08T13:22:51;22.90;99.90
26655;DHT22;14278;50.784;4.630;2023-08-08T13:25:17;23.20;99.90
26655;DHT22;14278;50.784;4.630;2023-08-08T13:27:44;23.40;99.90
26655;DHT22;14278;50.784;4.630;2023-08-08T13:30:10;23.30;99.90
26655;DHT22;14278;50.784;4.630;2023-08-08T13:32:37;23.20;99.90
26655;DHT22;14278;50.784;4.630;2023-08-08T13:35:04;22.80;99.90
26655;DHT22;14278;50.784;4.630;2023-08-08T13:37:30;22.50;99.90
26655;DHT22;14278;50.784;4.630;2023-08-08T13:39:56;21.90;99.90
26655;DHT22;14278;50.784;4.630;2023-08-08T13:42:21;22.10;99.90
26655;DHT22;14278;50.784;4.630;2023-08-08T13:44:47;22.00;99.90
26655;DHT22;14278;50.784;4.630;2023-08-08T13:47:13;21.90;99.90
26655;DHT22;14278;50.784;4.630;2023-08-08T13:49:39;22.10;99.90
26655;DHT22;14278;50.784;4.630;2023-08-08T13:52:05;22.20;99.90
26655;DHT22;14278;50.784;4.630;2023-08-08T13:54:30;22.30;99.90
26655;DHT22;14278;50.784;4.630;2023-08-08T13:56:56;22.30;99.90
26655;DHT22;14278;50.784;4.630;2023-08-08T13:59:22;22.50;99.90
26655;DHT22;14278;50.784;4.630;2023-08-08T14:01:48;22.20;99.90
26655;DHT22;14278;50.784;4.630;2023-08-08T14:04:13;22.60;99.90
26655;DHT22;14278;50.784;4.630;2023-08-08T14:06:39;23.10;99.90
26655;DHT22;14278;50.784;4.630;2023-08-08T14:09:05;22.90;99.90
26655;DHT22;14278;50.784;4.630;2023-08-08T14:11:32;22.70;99.90
26655;DHT22;14278;50.784;4.630;2023-08-08T14:13:57;22.60;99.90
26655;DHT22;14278;50.784;4.630;2023-08-08T14:16:23;22.80;99.90
26655;DHT22;14278;50.784;4.630;2023-08-08T14:18:49;22.40;99.90
26655;DHT22;14278;50.784;4.630;2023-08-08T14:21:15;22.50;99.90
26655;DHT22;14278;50.784;4.630;2023-08-08T14:23:41;22.60;99.90
26655;DHT22;14278;50.784;4.630;2023-08-08T14:26:07;22.10;99.90
26655;DHT22;14278;50.784;4.630;2023-08-08T14:28:32;21.80;99.90
26655;DHT22;14278;50.784;4.630;2023-08-08T14:30:58;21.60;99.90
26655;DHT22;14278;50.784;4.630;2023-08-08T14:33:24;21.80;99.90
26655;DHT22;14278;50.784;4.630;2023-08-08T14:35:50;21.80;99.90
26655;DHT22;14278;50.784;4.630;2023-08-08T14:38:15;21.90;99.90
26655;DHT22;14278;50.784;4.630;2023-08-08T14:40:41;21.80;99.90
26655;DHT22;14278;50.784;4.630;2023-08-08T14:43:07;21.70;99.90
26655;DHT22;14278;50.784;4.630;2023-08-08T14:45:37;21.30;99.90
26655;DHT22;14278;50.784;4.630;2023-08-08T14:48:04;21.10;99.90
26655;DHT22;14278;50.784;4.630;2023-08-08T14:50:31;21.00;99.90
26655;DHT22;14278;50.784;4.630;2023-08-08T14:52:57;20.90;99.90
26655;DHT22;14278;50.784;4.630;2023-08-08T14:55:23;20.90;99.90
26655;DHT22;14278;50.784;4.630;2023-08-08T14:57:48;20.70;99.90
26655;DHT22;14278;50.784;4.630;2023-08-08T15:00:15;20.50;99.90
26655;DHT22;14278;50.784;4.630;2023-08-08T15:02:40;20.60;99.90
26655;DHT22;14278;50.784;4.630;2023-08-08T15:05:06;20.40;99.90
26655;DHT22;14278;50.784;4.630;2023-08-08T15:07:32;20.50;99.90
26655;DHT22;14278;50.784;4.630;2023-08-08T15:09:58;20.80;99.90
26655;DHT22;14278;50.784;4.630;2023-08-08T15:12:24;21.40;99.90
26655;DHT22;14278;50.784;4.630;2023-08-08T15:14:49;21.40;99.90
26655;DHT22;14278;50.784;4.630;2023-08-08T15:17:16;21.40;99.90
26655;DHT22;14278;50.784;4.630;2023-08-08T15:19:42;21.30;99.90
26655;DHT22;14278;50.784;4.630;2023-08-08T15:22:08;21.10;99.90
26655;DHT22;14278;50.784;4.630;2023-08-08T15:24:34;21.10;99.90
26655;DHT22;14278;50.784;4.630;2023-08-08T15:27:04;21.00;99.90
26655;DHT22;14278;50.784;4.630;2023-08-08T15:29:30;21.00;99.90
26655;DHT22;14278;50.784;4.630;2023-08-08T15:31:56;21.00;99.90